Hlavní strana
METAR-TAF:

METAR-TAF

Letiště :

Chattanooga, Tennessee, Spojené státy americké

zeměpisná šířka: 35-02-00N, zeměpisná délka: 085-12-00W, výška: 207 m

Aktuální stav počasí

Zpráva byla vytvořena před 59 minutami, v 16:53 UTC
Severní vítr 11 kt
Teplota 12°C
Vlhkost vzduchu 38%
Tlak 1023 hPa
Viditelnost: 16.1 km
Polojasno ve výšce 8000 ft
Polojasno ve výšce 12000 ft
Oblačno až skoro zataženo ve výšce 20000 ft

METAR: KCHA 151653Z 01011KT 10SM SCT080 SCT120 BKN200 12/M02 A3021 RMK AO2 SLP229 T01171022

Čas: 12:52 (17:52 UTC)

Předpověď počasí

Zpráva byla vytvořena před 27 minutami, v 17:25 UTC
Předpověď platná od 15 v 18 UTC do 16 v 18 UTC
Severoseverovýchodní vítr 8 kt
Viditelnost: 10 km
Polojasno ve výšce 10000 ft
Od 16 v 0400 UTC
Severní vítr 9 kt
Viditelnost: 10 km
Jasno

TAF: KCHA 151725Z 1518/1618 02008KT P6SM SCT100 FM160400 01009KT P6SM SKC

Stav a předpovědi počasí z více než 4 000 letišť (zprávy METAR a TAF).

Červené a žluté tečky na mapě představují dostupné meteorologické stanice.

Když kurzor umístíte na tečku, zobrazí se název stanice.

Pak kliknutím zobrazíte stav a předpověď počasí.

Chcete-li změnit mapu, kliknutím na zelené tlačítko se znaménkem +mapu přiblížíte, kliknutím na zelené tlačítko se znaménkem – mapu oddálíte a kliknutím na zelené šipky přejdete na sousední mapy.


METAR-TAF: